sensor_id;sensor_type;location;lat;lon;timestamp;P1;durP1;ratioP1;P2;durP2;ratioP2
10154;SDS011;5118;48.570;7.916;2023-02-28T00:01:54;5.00;;;3.97;;
10154;SDS011;5118;48.570;7.916;2023-02-28T00:04:23;6.97;;;4.47;;
10154;SDS011;5118;48.570;7.916;2023-02-28T00:06:51;4.57;;;4.00;;
10154;SDS011;5118;48.570;7.916;2023-02-28T00:09:20;4.47;;;3.80;;
10154;SDS011;5118;48.570;7.916;2023-02-28T00:11:48;4.13;;;3.73;;
10154;SDS011;5118;48.570;7.916;2023-02-28T00:14:17;4.93;;;3.83;;
10154;SDS011;5118;48.570;7.916;2023-02-28T00:16:46;5.80;;;3.90;;
10154;SDS011;5118;48.570;7.916;2023-02-28T00:19:15;5.37;;;3.90;;
10154;SDS011;5118;48.570;7.916;2023-02-28T00:21:43;4.23;;;3.80;;
10154;SDS011;5118;48.570;7.916;2023-02-28T00:24:12;4.33;;;3.90;;
10154;SDS011;5118;48.570;7.916;2023-02-28T00:26:40;5.30;;;3.77;;
10154;SDS011;5118;48.570;7.916;2023-02-28T00:29:09;4.23;;;3.83;;
10154;SDS011;5118;48.570;7.916;2023-02-28T00:31:38;5.87;;;3.80;;
10154;SDS011;5118;48.570;7.916;2023-02-28T00:34:07;5.53;;;4.23;;
10154;SDS011;5118;48.570;7.916;2023-02-28T00:36:36;6.37;;;4.60;;
10154;SDS011;5118;48.570;7.916;2023-02-28T00:39:05;5.37;;;4.33;;
10154;SDS011;5118;48.570;7.916;2023-02-28T00:41:33;5.17;;;3.97;;
10154;SDS011;5118;48.570;7.916;2023-02-28T00:44:02;5.60;;;4.30;;
10154;SDS011;5118;48.570;7.916;2023-02-28T00:46:31;6.17;;;4.60;;
10154;SDS011;5118;48.570;7.916;2023-02-28T00:49:00;6.43;;;4.30;;
10154;SDS011;5118;48.570;7.916;2023-02-28T00:51:30;4.47;;;4.03;;
10154;SDS011;5118;48.570;7.916;2023-02-28T00:53:58;4.70;;;4.00;;
10154;SDS011;5118;48.570;7.916;2023-02-28T00:56:27;4.87;;;4.20;;
10154;SDS011;5118;48.570;7.916;2023-02-28T00:58:55;5.03;;;4.07;;
10154;SDS011;5118;48.570;7.916;2023-02-28T01:01:24;4.70;;;4.20;;
10154;SDS011;5118;48.570;7.916;2023-02-28T01:03:53;5.87;;;4.60;;
10154;SDS011;5118;48.570;7.916;2023-02-28T01:06:21;4.50;;;4.10;;
10154;SDS011;5118;48.570;7.916;2023-02-28T01:08:52;5.87;;;4.40;;
10154;SDS011;5118;48.570;7.916;2023-02-28T01:11:21;5.80;;;4.00;;
10154;SDS011;5118;48.570;7.916;2023-02-28T01:13:52;5.70;;;4.27;;
10154;SDS011;5118;48.570;7.916;2023-02-28T01:16:20;5.47;;;4.20;;
10154;SDS011;5118;48.570;7.916;2023-02-28T01:18:51;5.53;;;4.47;;
10154;SDS011;5118;48.570;7.916;2023-02-28T01:21:20;4.67;;;4.17;;
10154;SDS011;5118;48.570;7.916;2023-02-28T01:23:51;4.50;;;4.07;;
10154;SDS011;5118;48.570;7.916;2023-02-28T01:26:24;5.10;;;4.20;;
10154;SDS011;5118;48.570;7.916;2023-02-28T01:28:56;4.17;;;3.70;;
10154;SDS011;5118;48.570;7.916;2023-02-28T01:31:25;4.90;;;4.13;;
10154;SDS011;5118;48.570;7.916;2023-02-28T01:33:54;5.07;;;4.27;;
10154;SDS011;5118;48.570;7.916;2023-02-28T01:36:27;6.07;;;4.13;;
10154;SDS011;5118;48.570;7.916;2023-02-28T01:38:57;4.67;;;4.13;;
10154;SDS011;5118;48.570;7.916;2023-02-28T01:41:28;5.17;;;4.50;;
10154;SDS011;5118;48.570;7.916;2023-02-28T01:44:01;4.90;;;4.40;;
10154;SDS011;5118;48.570;7.916;2023-02-28T01:46:33;5.37;;;4.57;;
10154;SDS011;5118;48.570;7.916;2023-02-28T01:49:07;4.97;;;4.20;;
10154;SDS011;5118;48.570;7.916;2023-02-28T01:51:40;6.27;;;5.07;;
10154;SDS011;5118;48.570;7.916;2023-02-28T01:54:14;4.90;;;4.40;;
10154;SDS011;5118;48.570;7.916;2023-02-28T01:56:47;4.93;;;4.50;;
10154;SDS011;5118;48.570;7.916;2023-02-28T01:59:21;5.37;;;4.50;;
10154;SDS011;5118;48.570;7.916;2023-02-28T02:01:54;5.13;;;4.40;;
10154;SDS011;5118;48.570;7.916;2023-02-28T02:04:23;5.10;;;4.60;;
10154;SDS011;5118;48.570;7.916;2023-02-28T02:06:55;6.07;;;5.20;;
10154;SDS011;5118;48.570;7.916;2023-02-28T02:09:26;7.27;;;5.20;;
10154;SDS011;5118;48.570;7.916;2023-02-28T02:11:55;6.67;;;5.20;;
10154;SDS011;5118;48.570;7.916;2023-02-28T02:14:31;5.20;;;4.53;;
10154;SDS011;5118;48.570;7.916;2023-02-28T02:17:12;5.33;;;4.40;;
10154;SDS011;5118;48.570;7.916;2023-02-28T02:23:15;5.33;;;4.70;;
10154;SDS011;5118;48.570;7.916;2023-02-28T02:26:02;6.40;;;5.13;;
10154;SDS011;5118;48.570;7.916;2023-02-28T02:28:54;5.77;;;4.77;;
10154;SDS011;5118;48.570;7.916;2023-02-28T02:31:39;5.30;;;4.50;;
10154;SDS011;5118;48.570;7.916;2023-02-28T02:34:39;6.57;;;4.80;;
10154;SDS011;5118;48.570;7.916;2023-02-28T02:37:19;5.60;;;5.00;;
10154;SDS011;5118;48.570;7.916;2023-02-28T02:40:00;5.80;;;5.13;;
10154;SDS011;5118;48.570;7.916;2023-02-28T02:42:39;5.70;;;5.10;;
10154;SDS011;5118;48.570;7.916;2023-02-28T02:45:16;6.97;;;5.10;;
10154;SDS011;5118;48.570;7.916;2023-02-28T02:47:49;5.97;;;5.37;;
10154;SDS011;5118;48.570;7.916;2023-02-28T02:50:24;5.90;;;5.10;;
10154;SDS011;5118;48.570;7.916;2023-02-28T02:53:00;8.57;;;5.50;;
10154;SDS011;5118;48.570;7.916;2023-02-28T02:55:32;6.07;;;5.47;;
10154;SDS011;5118;48.570;7.916;2023-02-28T02:58:06;6.33;;;5.23;;
10154;SDS011;5118;48.570;7.916;2023-02-28T03:00:38;7.13;;;5.63;;
10154;SDS011;5118;48.570;7.916;2023-02-28T03:03:10;6.47;;;5.70;;
10154;SDS011;5118;48.570;7.916;2023-02-28T03:05:44;6.13;;;5.00;;
10154;SDS011;5118;48.570;7.916;2023-02-28T03:08:14;6.33;;;5.30;;
10154;SDS011;5118;48.570;7.916;2023-02-28T03:10:45;6.00;;;5.37;;
10154;SDS011;5118;48.570;7.916;2023-02-28T03:13:30;6.77;;;5.30;;
10154;SDS011;5118;48.570;7.916;2023-02-28T03:19:35;7.20;;;5.70;;
10154;SDS011;5118;48.570;7.916;2023-02-28T03:22:17;6.00;;;4.97;;
10154;SDS011;5118;48.570;7.916;2023-02-28T03:25:06;7.53;;;5.47;;
10154;SDS011;5118;48.570;7.916;2023-02-28T03:27:41;6.13;;;4.83;;
10154;SDS011;5118;48.570;7.916;2023-02-28T03:30:16;6.37;;;5.40;;
10154;SDS011;5118;48.570;7.916;2023-02-28T03:32:51;7.97;;;5.90;;
10154;SDS011;5118;48.570;7.916;2023-02-28T03:35:25;7.07;;;5.50;;
10154;SDS011;5118;48.570;7.916;2023-02-28T03:38:00;6.03;;;5.43;;
10154;SDS011;5118;48.570;7.916;2023-02-28T03:40:33;6.90;;;5.53;;
10154;SDS011;5118;48.570;7.916;2023-02-28T03:43:07;6.77;;;5.57;;
10154;SDS011;5118;48.570;7.916;2023-02-28T03:45:40;6.10;;;5.50;;
10154;SDS011;5118;48.570;7.916;2023-02-28T03:48:12;8.27;;;5.70;;
10154;SDS011;5118;48.570;7.916;2023-02-28T03:50:44;8.73;;;5.97;;
10154;SDS011;5118;48.570;7.916;2023-02-28T03:53:17;6.57;;;5.60;;
10154;SDS011;5118;48.570;7.916;2023-02-28T03:55:51;7.57;;;5.90;;
10154;SDS011;5118;48.570;7.916;2023-02-28T03:58:25;7.07;;;4.97;;
10154;SDS011;5118;48.570;7.916;2023-02-28T04:00:59;6.50;;;5.80;;
10154;SDS011;5118;48.570;7.916;2023-02-28T04:03:34;6.70;;;5.80;;
10154;SDS011;5118;48.570;7.916;2023-02-28T04:06:04;8.90;;;6.10;;
10154;SDS011;5118;48.570;7.916;2023-02-28T04:08:37;7.63;;;6.00;;
10154;SDS011;5118;48.570;7.916;2023-02-28T04:11:07;8.07;;;5.93;;
10154;SDS011;5118;48.570;7.916;2023-02-28T04:13:46;7.20;;;6.00;;
10154;SDS011;5118;48.570;7.916;2023-02-28T04:16:14;6.67;;;5.87;;
10154;SDS011;5118;48.570;7.916;2023-02-28T04:19:00;7.97;;;6.40;;
10154;SDS011;5118;48.570;7.916;2023-02-28T04:21:30;8.33;;;6.10;;
10154;SDS011;5118;48.570;7.916;2023-02-28T04:24:01;6.73;;;6.00;;
10154;SDS011;5118;48.570;7.916;2023-02-28T04:26:29;7.03;;;6.33;;
10154;SDS011;5118;48.570;7.916;2023-02-28T04:28:58;9.10;;;6.77;;
10154;SDS011;5118;48.570;7.916;2023-02-28T04:31:27;7.07;;;6.37;;
10154;SDS011;5118;48.570;7.916;2023-02-28T04:33:56;7.57;;;6.70;;
10154;SDS011;5118;48.570;7.916;2023-02-28T04:36:25;7.47;;;6.33;;
10154;SDS011;5118;48.570;7.916;2023-02-28T04:38:53;8.27;;;6.37;;
10154;SDS011;5118;48.570;7.916;2023-02-28T04:41:23;9.40;;;7.10;;
10154;SDS011;5118;48.570;7.916;2023-02-28T04:43:53;9.73;;;6.97;;
10154;SDS011;5118;48.570;7.916;2023-02-28T04:46:22;9.00;;;7.40;;
10154;SDS011;5118;48.570;7.916;2023-02-28T04:48:51;8.30;;;7.03;;
10154;SDS011;5118;48.570;7.916;2023-02-28T04:51:20;11.23;;;7.47;;
10154;SDS011;5118;48.570;7.916;2023-02-28T04:53:48;10.50;;;8.17;;
10154;SDS011;5118;48.570;7.916;2023-02-28T04:56:16;8.50;;;6.83;;
10154;SDS011;5118;48.570;7.916;2023-02-28T04:58:47;8.43;;;7.50;;
10154;SDS011;5118;48.570;7.916;2023-02-28T05:01:17;10.43;;;7.90;;
10154;SDS011;5118;48.570;7.916;2023-02-28T05:03:47;9.93;;;7.20;;
10154;SDS011;5118;48.570;7.916;2023-02-28T05:06:17;9.13;;;6.97;;
10154;SDS011;5118;48.570;7.916;2023-02-28T05:08:47;7.67;;;6.87;;
10154;SDS011;5118;48.570;7.916;2023-02-28T05:11:17;8.90;;;7.13;;
10154;SDS011;5118;48.570;7.916;2023-02-28T05:13:48;8.30;;;7.20;;
10154;SDS011;5118;48.570;7.916;2023-02-28T05:16:18;9.30;;;6.97;;
10154;SDS011;5118;48.570;7.916;2023-02-28T05:18:47;10.07;;;8.00;;
10154;SDS011;5118;48.570;7.916;2023-02-28T05:21:22;8.50;;;6.93;;
10154;SDS011;5118;48.570;7.916;2023-02-28T05:23:52;8.97;;;7.63;;
10154;SDS011;5118;48.570;7.916;2023-02-28T05:26:21;9.90;;;7.17;;
10154;SDS011;5118;48.570;7.916;2023-02-28T05:28:51;8.20;;;7.10;;
10154;SDS011;5118;48.570;7.916;2023-02-28T05:31:20;9.47;;;7.50;;
10154;SDS011;5118;48.570;7.916;2023-02-28T05:33:49;10.27;;;7.13;;
10154;SDS011;5118;48.570;7.916;2023-02-28T05:36:18;10.73;;;7.93;;
10154;SDS011;5118;48.570;7.916;2023-02-28T05:38:46;8.20;;;7.17;;
10154;SDS011;5118;48.570;7.916;2023-02-28T05:41:15;9.67;;;7.37;;
10154;SDS011;5118;48.570;7.916;2023-02-28T05:43:45;9.63;;;7.03;;
10154;SDS011;5118;48.570;7.916;2023-02-28T05:46:16;9.30;;;7.87;;
10154;SDS011;5118;48.570;7.916;2023-02-28T05:48:45;9.73;;;7.33;;
10154;SDS011;5118;48.570;7.916;2023-02-28T05:51:16;9.87;;;8.27;;
10154;SDS011;5118;48.570;7.916;2023-02-28T05:53:44;10.37;;;8.33;;
10154;SDS011;5118;48.570;7.916;2023-02-28T05:56:15;10.53;;;8.30;;
10154;SDS011;5118;48.570;7.916;2023-02-28T05:58:44;10.57;;;8.43;;
10154;SDS011;5118;48.570;7.916;2023-02-28T06:01:21;9.27;;;7.47;;
10154;SDS011;5118;48.570;7.916;2023-02-28T06:03:51;9.33;;;7.50;;
10154;SDS011;5118;48.570;7.916;2023-02-28T06:06:20;9.33;;;7.77;;
10154;SDS011;5118;48.570;7.916;2023-02-28T06:08:48;10.53;;;7.20;;
10154;SDS011;5118;48.570;7.916;2023-02-28T06:11:16;10.93;;;8.57;;
10154;SDS011;5118;48.570;7.916;2023-02-28T06:13:46;10.57;;;8.13;;
10154;SDS011;5118;48.570;7.916;2023-02-28T06:16:15;10.13;;;8.40;;
10154;SDS011;5118;48.570;7.916;2023-02-28T06:18:48;9.83;;;8.13;;
10154;SDS011;5118;48.570;7.916;2023-02-28T06:21:17;11.10;;;8.80;;
10154;SDS011;5118;48.570;7.916;2023-02-28T06:23:47;9.43;;;7.97;;
10154;SDS011;5118;48.570;7.916;2023-02-28T06:26:16;10.73;;;8.43;;
10154;SDS011;5118;48.570;7.916;2023-02-28T06:28:44;9.47;;;8.33;;
10154;SDS011;5118;48.570;7.916;2023-02-28T06:31:15;9.77;;;8.37;;
10154;SDS011;5118;48.570;7.916;2023-02-28T06:33:45;10.93;;;8.27;;
10154;SDS011;5118;48.570;7.916;2023-02-28T06:36:17;11.97;;;8.17;;
10154;SDS011;5118;48.570;7.916;2023-02-28T06:38:46;11.40;;;8.53;;
10154;SDS011;5118;48.570;7.916;2023-02-28T06:41:21;13.63;;;10.40;;
10154;SDS011;5118;48.570;7.916;2023-02-28T06:43:51;13.67;;;10.50;;
10154;SDS011;5118;48.570;7.916;2023-02-28T06:46:20;16.50;;;12.00;;
10154;SDS011;5118;48.570;7.916;2023-02-28T06:48:48;12.63;;;10.43;;
10154;SDS011;5118;48.570;7.916;2023-02-28T06:51:19;13.43;;;11.47;;
10154;SDS011;5118;48.570;7.916;2023-02-28T06:53:49;19.17;;;15.50;;
10154;SDS011;5118;48.570;7.916;2023-02-28T06:56:18;11.50;;;8.90;;
10154;SDS011;5118;48.570;7.916;2023-02-28T06:58:47;10.97;;;9.27;;
10154;SDS011;5118;48.570;7.916;2023-02-28T07:01:17;11.97;;;8.70;;
10154;SDS011;5118;48.570;7.916;2023-02-28T07:03:46;11.50;;;8.80;;
10154;SDS011;5118;48.570;7.916;2023-02-28T07:06:20;12.63;;;10.03;;
10154;SDS011;5118;48.570;7.916;2023-02-28T07:08:50;11.73;;;9.23;;
10154;SDS011;5118;48.570;7.916;2023-02-28T07:11:37;48.60;;;29.20;;
10154;SDS011;5118;48.570;7.916;2023-02-28T07:14:05;19.10;;;14.30;;
10154;SDS011;5118;48.570;7.916;2023-02-28T07:16:34;15.63;;;10.67;;
10154;SDS011;5118;48.570;7.916;2023-02-28T07:19:04;14.47;;;11.23;;
10154;SDS011;5118;48.570;7.916;2023-02-28T07:21:32;16.13;;;12.10;;
10154;SDS011;5118;48.570;7.916;2023-02-28T07:24:00;11.73;;;9.67;;
10154;SDS011;5118;48.570;7.916;2023-02-28T07:26:28;11.20;;;8.93;;
10154;SDS011;5118;48.570;7.916;2023-02-28T07:28:58;13.10;;;9.17;;
10154;SDS011;5118;48.570;7.916;2023-02-28T07:31:26;11.77;;;8.97;;
10154;SDS011;5118;48.570;7.916;2023-02-28T07:33:55;11.30;;;8.93;;
10154;SDS011;5118;48.570;7.916;2023-02-28T07:36:24;12.33;;;8.87;;
10154;SDS011;5118;48.570;7.916;2023-02-28T07:38:52;12.50;;;9.83;;
10154;SDS011;5118;48.570;7.916;2023-02-28T07:41:21;14.90;;;10.50;;
10154;SDS011;5118;48.570;7.916;2023-02-28T07:43:52;13.63;;;9.93;;
10154;SDS011;5118;48.570;7.916;2023-02-28T07:46:23;11.77;;;9.30;;
10154;SDS011;5118;48.570;7.916;2023-02-28T07:48:55;11.77;;;9.10;;
10154;SDS011;5118;48.570;7.916;2023-02-28T07:51:26;10.57;;;8.90;;
10154;SDS011;5118;48.570;7.916;2023-02-28T07:53:55;14.33;;;11.30;;
10154;SDS011;5118;48.570;7.916;2023-02-28T07:56:24;10.83;;;9.17;;
10154;SDS011;5118;48.570;7.916;2023-02-28T07:58:55;10.20;;;9.00;;
10154;SDS011;5118;48.570;7.916;2023-02-28T08:01:25;11.23;;;9.27;;
10154;SDS011;5118;48.570;7.916;2023-02-28T08:03:54;11.13;;;9.10;;
10154;SDS011;5118;48.570;7.916;2023-02-28T08:06:24;14.23;;;10.73;;
10154;SDS011;5118;48.570;7.916;2023-02-28T08:08:54;16.67;;;12.00;;
10154;SDS011;5118;48.570;7.916;2023-02-28T08:11:23;14.10;;;10.37;;
10154;SDS011;5118;48.570;7.916;2023-02-28T08:13:52;13.40;;;10.60;;
10154;SDS011;5118;48.570;7.916;2023-02-28T08:16:22;15.90;;;11.80;;
10154;SDS011;5118;48.570;7.916;2023-02-28T08:18:52;15.40;;;12.20;;
10154;SDS011;5118;48.570;7.916;2023-02-28T08:21:21;14.10;;;10.60;;
10154;SDS011;5118;48.570;7.916;2023-02-28T08:23:50;10.33;;;8.77;;
10154;SDS011;5118;48.570;7.916;2023-02-28T08:26:19;11.27;;;9.23;;
10154;SDS011;5118;48.570;7.916;2023-02-28T08:28:49;13.70;;;10.73;;
10154;SDS011;5118;48.570;7.916;2023-02-28T08:31:17;49.60;;;24.63;;
10154;SDS011;5118;48.570;7.916;2023-02-28T08:33:46;41.67;;;20.43;;
10154;SDS011;5118;48.570;7.916;2023-02-28T08:36:21;56.60;;;26.00;;
10154;SDS011;5118;48.570;7.916;2023-02-28T08:38:51;20.43;;;15.03;;
10154;SDS011;5118;48.570;7.916;2023-02-28T08:41:24;18.43;;;13.70;;
10154;SDS011;5118;48.570;7.916;2023-02-28T08:43:55;18.77;;;14.47;;
10154;SDS011;5118;48.570;7.916;2023-02-28T08:46:24;13.97;;;10.93;;
10154;SDS011;5118;48.570;7.916;2023-02-28T08:48:53;12.50;;;9.90;;
10154;SDS011;5118;48.570;7.916;2023-02-28T08:51:27;12.77;;;10.60;;
10154;SDS011;5118;48.570;7.916;2023-02-28T08:53:59;11.90;;;10.17;;
10154;SDS011;5118;48.570;7.916;2023-02-28T08:56:28;17.47;;;12.63;;
10154;SDS011;5118;48.570;7.916;2023-02-28T08:58:57;20.43;;;13.57;;
10154;SDS011;5118;48.570;7.916;2023-02-28T09:01:26;12.70;;;11.10;;
10154;SDS011;5118;48.570;7.916;2023-02-28T09:04:00;14.60;;;12.00;;
10154;SDS011;5118;48.570;7.916;2023-02-28T09:06:35;16.73;;;12.50;;
10154;SDS011;5118;48.570;7.916;2023-02-28T09:09:03;12.87;;;10.80;;
10154;SDS011;5118;48.570;7.916;2023-02-28T09:11:34;10.57;;;8.63;;
10154;SDS011;5118;48.570;7.916;2023-02-28T09:14:03;17.73;;;13.27;;
10154;SDS011;5118;48.570;7.916;2023-02-28T09:16:34;11.97;;;10.33;;
10154;SDS011;5118;48.570;7.916;2023-02-28T09:19:04;14.43;;;11.57;;
10154;SDS011;5118;48.570;7.916;2023-02-28T09:21:32;19.30;;;14.23;;
10154;SDS011;5118;48.570;7.916;2023-02-28T09:24:04;17.27;;;11.80;;
10154;SDS011;5118;48.570;7.916;2023-02-28T09:26:32;17.30;;;12.50;;
10154;SDS011;5118;48.570;7.916;2023-02-28T09:29:12;17.37;;;12.93;;
10154;SDS011;5118;48.570;7.916;2023-02-28T09:31:43;17.13;;;13.47;;
10154;SDS011;5118;48.570;7.916;2023-02-28T09:34:11;12.70;;;9.47;;
10154;SDS011;5118;48.570;7.916;2023-02-28T09:36:41;31.73;;;22.47;;
10154;SDS011;5118;48.570;7.916;2023-02-28T09:39:12;14.03;;;11.10;;
10154;SDS011;5118;48.570;7.916;2023-02-28T09:41:47;16.50;;;12.63;;
10154;SDS011;5118;48.570;7.916;2023-02-28T09:44:19;10.80;;;9.60;;
10154;SDS011;5118;48.570;7.916;2023-02-28T09:46:56;24.73;;;18.27;;
10154;SDS011;5118;48.570;7.916;2023-02-28T09:49:33;15.13;;;11.43;;
10154;SDS011;5118;48.570;7.916;2023-02-28T09:52:11;12.83;;;10.70;;
10154;SDS011;5118;48.570;7.916;2023-02-28T09:54:43;13.13;;;11.40;;
10154;SDS011;5118;48.570;7.916;2023-02-28T09:57:14;11.73;;;9.60;;
10154;SDS011;5118;48.570;7.916;2023-02-28T09:59:54;12.87;;;10.60;;
10154;SDS011;5118;48.570;7.916;2023-02-28T10:05:38;13.60;;;10.00;;
10154;SDS011;5118;48.570;7.916;2023-02-28T10:08:13;12.33;;;10.63;;
10154;SDS011;5118;48.570;7.916;2023-02-28T10:10:45;13.83;;;10.50;;
10154;SDS011;5118;48.570;7.916;2023-02-28T10:13:19;15.67;;;10.87;;
10154;SDS011;5118;48.570;7.916;2023-02-28T10:15:52;15.67;;;12.03;;
10154;SDS011;5118;48.570;7.916;2023-02-28T10:18:24;15.77;;;11.43;;
10154;SDS011;5118;48.570;7.916;2023-02-28T10:20:58;12.27;;;10.23;;
10154;SDS011;5118;48.570;7.916;2023-02-28T10:23:30;11.60;;;10.40;;
10154;SDS011;5118;48.570;7.916;2023-02-28T10:26:05;13.70;;;10.97;;
10154;SDS011;5118;48.570;7.916;2023-02-28T10:28:40;12.53;;;10.70;;
10154;SDS011;5118;48.570;7.916;2023-02-28T10:31:08;11.67;;;10.00;;
10154;SDS011;5118;48.570;7.916;2023-02-28T10:33:40;12.10;;;10.03;;
10154;SDS011;5118;48.570;7.916;2023-02-28T10:36:10;11.00;;;9.80;;
10154;SDS011;5118;48.570;7.916;2023-02-28T10:38:45;14.67;;;12.23;;
10154;SDS011;5118;48.570;7.916;2023-02-28T10:41:14;13.43;;;9.50;;
10154;SDS011;5118;48.570;7.916;2023-02-28T10:43:44;12.43;;;10.43;;
10154;SDS011;5118;48.570;7.916;2023-02-28T10:46:14;13.20;;;10.20;;
10154;SDS011;5118;48.570;7.916;2023-02-28T10:49:02;15.60;;;11.60;;
10154;SDS011;5118;48.570;7.916;2023-02-28T10:51:36;12.57;;;10.77;;
10154;SDS011;5118;48.570;7.916;2023-02-28T10:54:18;13.10;;;9.90;;
10154;SDS011;5118;48.570;7.916;2023-02-28T10:59:45;19.83;;;14.40;;
10154;SDS011;5118;48.570;7.916;2023-02-28T11:02:31;23.43;;;16.87;;
10154;SDS011;5118;48.570;7.916;2023-02-28T11:05:02;18.20;;;13.50;;
10154;SDS011;5118;48.570;7.916;2023-02-28T11:07:51;15.90;;;12.97;;
10154;SDS011;5118;48.570;7.916;2023-02-28T11:10:24;14.97;;;11.83;;
10154;SDS011;5118;48.570;7.916;2023-02-28T11:12:58;15.60;;;12.03;;
10154;SDS011;5118;48.570;7.916;2023-02-28T11:15:27;13.53;;;11.50;;
10154;SDS011;5118;48.570;7.916;2023-02-28T11:17:57;11.83;;;10.20;;
10154;SDS011;5118;48.570;7.916;2023-02-28T11:20:28;14.47;;;12.13;;
10154;SDS011;5118;48.570;7.916;2023-02-28T11:23:00;12.47;;;11.10;;
10154;SDS011;5118;48.570;7.916;2023-02-28T11:25:33;13.97;;;11.60;;
10154;SDS011;5118;48.570;7.916;2023-02-28T11:28:06;13.53;;;10.03;;
10154;SDS011;5118;48.570;7.916;2023-02-28T11:30:59;15.30;;;12.07;;
10154;SDS011;5118;48.570;7.916;2023-02-28T11:33:30;13.50;;;11.67;;
10154;SDS011;5118;48.570;7.916;2023-02-28T11:36:09;14.60;;;12.07;;
10154;SDS011;5118;48.570;7.916;2023-02-28T11:38:40;14.77;;;12.47;;
10154;SDS011;5118;48.570;7.916;2023-02-28T11:41:16;13.67;;;11.07;;
10154;SDS011;5118;48.570;7.916;2023-02-28T11:44:15;11.90;;;10.57;;
10154;SDS011;5118;48.570;7.916;2023-02-28T11:46:54;13.60;;;10.97;;
10154;SDS011;5118;48.570;7.916;2023-02-28T11:49:30;13.37;;;10.63;;
10154;SDS011;5118;48.570;7.916;2023-02-28T11:52:04;13.47;;;11.73;;
10154;SDS011;5118;48.570;7.916;2023-02-28T11:54:48;12.70;;;11.40;;
10154;SDS011;5118;48.570;7.916;2023-02-28T11:57:35;12.63;;;11.33;;
10154;SDS011;5118;48.570;7.916;2023-02-28T12:00:16;13.23;;;10.47;;
10154;SDS011;5118;48.570;7.916;2023-02-28T12:02:58;11.57;;;10.37;;
10154;SDS011;5118;48.570;7.916;2023-02-28T12:05:35;13.20;;;11.40;;
10154;SDS011;5118;48.570;7.916;2023-02-28T12:08:19;14.13;;;11.10;;
10154;SDS011;5118;48.570;7.916;2023-02-28T12:11:02;13.37;;;10.23;;
10154;SDS011;5118;48.570;7.916;2023-02-28T12:13:41;13.20;;;10.70;;
10154;SDS011;5118;48.570;7.916;2023-02-28T12:16:21;15.00;;;11.40;;
10154;SDS011;5118;48.570;7.916;2023-02-28T12:19:08;12.13;;;10.33;;
10154;SDS011;5118;48.570;7.916;2023-02-28T12:21:53;13.00;;;11.60;;
10154;SDS011;5118;48.570;7.916;2023-02-28T12:27:43;12.83;;;11.53;;
10154;SDS011;5118;48.570;7.916;2023-02-28T12:30:16;12.60;;;11.17;;
10154;SDS011;5118;48.570;7.916;2023-02-28T12:32:50;11.47;;;10.27;;
10154;SDS011;5118;48.570;7.916;2023-02-28T12:35:23;16.70;;;12.70;;
10154;SDS011;5118;48.570;7.916;2023-02-28T12:37:59;35.47;;;21.23;;
10154;SDS011;5118;48.570;7.916;2023-02-28T12:40:33;11.17;;;9.90;;
10154;SDS011;5118;48.570;7.916;2023-02-28T12:43:12;66.33;;;31.57;;
10154;SDS011;5118;48.570;7.916;2023-02-28T12:45:46;65.90;;;30.70;;
10154;SDS011;5118;48.570;7.916;2023-02-28T12:48:19;20.40;;;14.63;;
10154;SDS011;5118;48.570;7.916;2023-02-28T12:50:52;14.07;;;11.07;;
10154;SDS011;5118;48.570;7.916;2023-02-28T12:53:23;14.53;;;11.53;;
10154;SDS011;5118;48.570;7.916;2023-02-28T12:55:57;13.37;;;11.20;;
10154;SDS011;5118;48.570;7.916;2023-02-28T12:58:36;14.20;;;12.60;;
10154;SDS011;5118;48.570;7.916;2023-02-28T13:01:25;13.07;;;11.77;;
10154;SDS011;5118;48.570;7.916;2023-02-28T13:07:32;13.10;;;10.97;;
10154;SDS011;5118;48.570;7.916;2023-02-28T13:10:22;14.07;;;11.27;;
10154;SDS011;5118;48.570;7.916;2023-02-28T13:12:54;12.87;;;11.47;;
10154;SDS011;5118;48.570;7.916;2023-02-28T13:15:40;12.23;;;10.77;;
10154;SDS011;5118;48.570;7.916;2023-02-28T13:21:52;11.20;;;10.00;;
10154;SDS011;5118;48.570;7.916;2023-02-28T13:24:50;10.57;;;9.57;;
10154;SDS011;5118;48.570;7.916;2023-02-28T13:27:31;11.13;;;10.13;;
10154;SDS011;5118;48.570;7.916;2023-02-28T13:33:19;11.00;;;9.90;;
10154;SDS011;5118;48.570;7.916;2023-02-28T13:36:06;11.17;;;10.07;;
10154;SDS011;5118;48.570;7.916;2023-02-28T13:38:50;11.53;;;10.43;;
10154;SDS011;5118;48.570;7.916;2023-02-28T13:41:40;11.23;;;10.07;;
10154;SDS011;5118;48.570;7.916;2023-02-28T13:44:10;10.77;;;9.77;;
10154;SDS011;5118;48.570;7.916;2023-02-28T13:49:44;11.70;;;10.60;;
10154;SDS011;5118;48.570;7.916;2023-02-28T13:52:16;11.77;;;10.63;;
10154;SDS011;5118;48.570;7.916;2023-02-28T13:57:59;8.80;;;8.00;;
10154;SDS011;5118;48.570;7.916;2023-02-28T14:00:51;9.43;;;8.32;;
10154;SDS011;5118;48.570;7.916;2023-02-28T14:06:31;9.73;;;8.82;;
10154;SDS011;5118;48.570;7.916;2023-02-28T14:09:06;9.77;;;8.88;;
10154;SDS011;5118;48.570;7.916;2023-02-28T14:11:46;9.65;;;8.75;;
10154;SDS011;5118;48.570;7.916;2023-02-28T14:17:17;9.75;;;8.85;;
10154;SDS011;5118;48.570;7.916;2023-02-28T14:19:46;9.63;;;8.73;;
10154;SDS011;5118;48.570;7.916;2023-02-28T14:22:19;10.55;;;8.88;;
10154;SDS011;5118;48.570;7.916;2023-02-28T14:25:13;9.35;;;8.45;;
10154;SDS011;5118;48.570;7.916;2023-02-28T14:27:53;8.98;;;8.18;;
10154;SDS011;5118;48.570;7.916;2023-02-28T14:30:52;8.98;;;8.18;;
10154;SDS011;5118;48.570;7.916;2023-02-28T14:36:17;9.35;;;8.45;;
10154;SDS011;5118;48.570;7.916;2023-02-28T14:38:50;9.00;;;8.10;;
10154;SDS011;5118;48.570;7.916;2023-02-28T14:41:23;8.93;;;8.13;;
10154;SDS011;5118;48.570;7.916;2023-02-28T14:43:56;10.38;;;9.35;;
10154;SDS011;5118;48.570;7.916;2023-02-28T14:46:26;19.10;;;15.13;;
10154;SDS011;5118;48.570;7.916;2023-02-28T14:49:03;9.18;;;8.38;;
10154;SDS011;5118;48.570;7.916;2023-02-28T14:51:33;9.27;;;8.57;;
10154;SDS011;5118;48.570;7.916;2023-02-28T14:54:02;9.80;;;9.00;;
10154;SDS011;5118;48.570;7.916;2023-02-28T14:56:34;10.65;;;9.75;;
10154;SDS011;5118;48.570;7.916;2023-02-28T14:59:04;10.18;;;9.27;;
10154;SDS011;5118;48.570;7.916;2023-02-28T15:01:52;10.55;;;9.55;;
10154;SDS011;5118;48.570;7.916;2023-02-28T15:04:35;10.20;;;9.30;;
10154;SDS011;5118;48.570;7.916;2023-02-28T15:07:07;11.07;;;9.82;;
10154;SDS011;5118;48.570;7.916;2023-02-28T15:09:36;9.45;;;8.60;;
10154;SDS011;5118;48.570;7.916;2023-02-28T15:12:06;10.18;;;9.25;;
10154;SDS011;5118;48.570;7.916;2023-02-28T15:14:34;9.85;;;8.85;;
10154;SDS011;5118;48.570;7.916;2023-02-28T15:17:07;9.85;;;9.02;;
10154;SDS011;5118;48.570;7.916;2023-02-28T15:19:40;11.40;;;10.23;;
10154;SDS011;5118;48.570;7.916;2023-02-28T15:22:19;9.75;;;8.95;;
10154;SDS011;5118;48.570;7.916;2023-02-28T15:24:55;10.40;;;9.40;;
10154;SDS011;5118;48.570;7.916;2023-02-28T15:27:30;10.57;;;9.68;;
10154;SDS011;5118;48.570;7.916;2023-02-28T15:30:03;10.30;;;9.30;;
10154;SDS011;5118;48.570;7.916;2023-02-28T15:32:35;10.68;;;9.68;;
10154;SDS011;5118;48.570;7.916;2023-02-28T15:35:17;12.13;;;9.68;;
10154;SDS011;5118;48.570;7.916;2023-02-28T15:37:52;12.35;;;11.18;;
10154;SDS011;5118;48.570;7.916;2023-02-28T15:40:23;14.40;;;11.85;;
10154;SDS011;5118;48.570;7.916;2023-02-28T15:42:59;12.20;;;11.07;;
10154;SDS011;5118;48.570;7.916;2023-02-28T15:45:33;14.50;;;13.13;;
10154;SDS011;5118;48.570;7.916;2023-02-28T15:48:13;10.68;;;9.70;;
10154;SDS011;5118;48.570;7.916;2023-02-28T15:50:48;12.70;;;11.45;;
10154;SDS011;5118;48.570;7.916;2023-02-28T15:53:20;12.88;;;11.68;;
10154;SDS011;5118;48.570;7.916;2023-02-28T15:55:54;11.73;;;10.73;;
10154;SDS011;5118;48.570;7.916;2023-02-28T16:01:23;13.05;;;11.45;;
10154;SDS011;5118;48.570;7.916;2023-02-28T16:03:56;13.45;;;12.25;;
10154;SDS011;5118;48.570;7.916;2023-02-28T16:06:32;12.95;;;11.75;;
10154;SDS011;5118;48.570;7.916;2023-02-28T16:09:03;12.65;;;11.45;;